Wednesday, October 24, 2018, 12:41 AM GMT
Back to Local

CWNQ, Nicolet Automatic Weather Reporting System

Location: , , Canada Lat: 46.217
Local Time: 12:41 AM GMT ( 0:41 GMT) Lon: -72.65
Time Zone: GMT Elev: 32 ft

Show me the last for .
Show Coded

Time T Td Feel RH Dir Speed Gust Alt SLP Vis Weather Sky Remarks
2018-10-24 00:00 40 27 35 57 40° 8 - - 30.03 0 None
2018-10-23 23:00 42 27 33 55 40° 9 18 - 30.03 0 None
2018-10-23 22:00 40 29 34 65 40° 9 - - 30.03 0 None
2018-10-23 21:00 42 27 34 53 40° 8 18 - 30.03 0 None
2018-10-23 20:00 43 28 38 55 30° 8 - - 30.03 0 None
2018-10-23 19:00 44 27 36 51 30° 9 17 - 30.03 0 None
2018-10-23 18:00 43 27 38 51 50° 8 - - 30.06 0 None
2018-10-23 17:00 40 26 34 56 40° 10 - - 30.08 0 None
2018-10-23 16:00 39 27 33 60 40° 8 - - 30.10 0 None
2018-10-23 15:00 38 27 32 64 50° 8 - - 30.12 0 None
2018-10-23 14:00 36 25 30 63 50° 7 - - 30.13 0 None
2018-10-23 13:00 32 26 26 78 50° 6 - - 30.14 0 None
2018-10-23 12:00 31 25 25 80 40° 6 - - 30.14 0 None
2018-10-23 11:00 31 26 24 80 50° 7 - - 30.13 0 None
2018-10-23 10:00 32 26 27 78 40° 5 - - 30.13 0 None
2018-10-23 09:00 32 24 28 72 50° 3 - - 30.13 0 None
2018-10-23 08:00 32 24 29 73 60° 3 - - 30.13 0 None
2018-10-23 07:00 32 25 29 76 50° 3 - - 30.13 0 None
2018-10-23 06:00 31 25 28 76 70° 3 - - 30.14 0 None
2018-10-23 05:00 32 25 - 77 90° 2 - - 30.14 0 None
2018-10-23 04:00 31 26 - 79 50° 2 - - 30.14 0 None
2018-10-23 03:00 33 26 - 72 30° 1 - - 30.14 0 None
2018-10-23 02:00 33 26 - 73 150° 1 - - 30.14 0 None
2018-10-23 01:00 33 25 - 71 100° 1 - - 30.12 0 None

Support USWX by starting your Amazon purchase here.